Time;durP1;ratioP1;P1;durP2;ratioP2;P2;SDS_P1;SDS_P2;PMS_P1;PMS_P2;Temp;Humidity;BMP_temperature;BMP_pressure;BME280_temperature;BME280_humidity;BME280_pressure;Samples;Min_cycle;Max_cycle;Signal;HPM_P1;HPM_P2
2023/01/14 00:01:19;;;;;;;6.27;2.00;;;;;;;9.68;58.00;97866.72;5063393;28;20673;-72
2023/01/14 00:03:45;;;;;;;4.80;2.37;;;;;;;9.61;57.61;97868.22;5064379;28;20190;-73
2023/01/14 00:06:13;;;;;;;6.70;2.40;;;;;;;9.52;57.78;97867.19;5053199;28;20421;-73
2023/01/14 00:08:38;;;;;;;4.77;2.20;;;;;;;9.45;58.05;97863.44;5049360;28;21027;-74
2023/01/14 00:11:05;;;;;;;9.17;2.10;;;;;;;9.32;58.78;97861.03;5061156;28;20410;-74
2023/01/14 00:13:33;;;;;;;3.40;1.73;;;;;;;9.18;59.06;97851.72;5052508;28;20186;-73
2023/01/14 00:15:58;;;;;;;6.63;2.03;;;;;;;9.20;58.84;97858.47;5053397;28;20521;-73
2023/01/14 00:18:24;;;;;;;8.73;2.27;;;;;;;9.22;58.44;97859.19;5055463;28;21089;-72
2023/01/14 00:21:03;;;;;;;5.93;1.90;;;;;;;9.14;59.06;97845.88;5046781;28;20584;-73
2023/01/14 00:23:30;;;;;;;5.00;2.00;;;;;;;9.18;58.60;97854.34;5051944;28;20175;-73
2023/01/14 00:26:22;;;;;;;6.00;1.80;;;;;;;9.15;57.74;97851.97;5052397;28;20484;-73
2023/01/14 00:28:49;;;;;;;7.07;2.17;;;;;;;9.22;58.00;97853.94;5043335;28;20454;-73
2023/01/14 00:31:22;;;;;;;6.83;2.00;;;;;;;9.28;58.21;97862.22;5055989;28;20929;-72
2023/01/14 00:33:47;;;;;;;5.17;2.20;;;;;;;8.99;58.16;97855.84;5053955;28;20426;-73
2023/01/14 00:36:16;;;;;;;8.93;2.07;;;;;;;8.90;58.74;97859.22;5053131;28;20929;-73
2023/01/14 00:38:41;;;;;;;6.13;2.13;;;;;;;8.75;58.93;97854.28;5045188;28;20658;-73
2023/01/14 00:41:13;;;;;;;4.97;2.10;;;;;;;8.66;59.63;97848.97;5055703;28;20567;-71
2023/01/14 00:43:41;;;;;;;5.83;2.83;;;;;;;8.70;58.94;97845.16;5050903;28;20187;-72
2023/01/14 00:46:09;;;;;;;8.43;2.97;;;;;;;8.72;58.93;97851.91;5052680;28;20461;-73
2023/01/14 00:48:35;;;;;;;4.03;2.30;;;;;;;8.66;59.04;97852.44;5052520;28;20429;-74
2023/01/14 00:51:01;;;;;;;8.37;2.90;;;;;;;8.54;58.92;97853.41;5018220;28;20788;-75
2023/01/14 00:53:27;;;;;;;6.50;2.50;;;;;;;8.46;59.81;97857.44;5052614;28;20418;-73
2023/01/14 00:55:52;;;;;;;7.40;2.83;;;;;;;8.43;59.77;97855.09;5051687;28;20643;-74
2023/01/14 00:58:18;;;;;;;5.20;2.67;;;;;;;8.49;59.22;97843.34;5052250;28;20440;-75
2023/01/14 01:00:44;;;;;;;6.00;2.67;;;;;;;8.49;59.35;97834.66;5050356;28;20294;-76
2023/01/14 01:03:10;;;;;;;5.43;2.60;;;;;;;8.50;59.13;97844.16;5051190;28;20191;-72
2023/01/14 01:05:36;;;;;;;6.63;3.37;;;;;;;8.50;59.40;97845.00;5053240;28;20484;-73
2023/01/14 01:08:06;;;;;;;10.67;2.83;;;;;;;8.57;59.59;97854.00;5050875;28;20194;-71
2023/01/14 01:10:34;;;;;;;7.43;2.00;;;;;;;8.41;59.26;97853.53;5047799;28;20575;-71
2023/01/14 01:12:59;;;;;;;8.30;2.63;;;;;;;8.28;59.33;97864.13;5050984;28;20487;-71
2023/01/14 01:15:25;;;;;;;6.53;2.77;;;;;;;8.28;59.54;97864.13;5050666;28;20949;-73
2023/01/14 01:17:50;;;;;;;5.87;2.63;;;;;;;8.24;59.33;97878.38;5051665;28;20243;-72
2023/01/14 01:20:16;;;;;;;5.03;2.53;;;;;;;8.25;59.22;97880.03;5050985;28;20251;-73
2023/01/14 01:22:41;;;;;;;6.87;2.57;;;;;;;8.21;59.19;97869.00;5052171;28;20591;-72
2023/01/14 01:25:07;;;;;;;4.47;2.03;;;;;;;8.12;59.07;97881.00;5051471;28;20219;-72
2023/01/14 01:27:32;;;;;;;4.23;1.73;;;;;;;8.14;59.24;97879.09;5051290;28;20183;-72
2023/01/14 01:29:58;;;;;;;4.23;2.23;;;;;;;8.06;59.63;97881.50;5049171;28;20230;-72
2023/01/14 01:32:25;;;;;;;5.10;2.60;;;;;;;8.04;59.59;97879.94;5051866;28;20221;-73
2023/01/14 01:34:50;;;;;;;5.00;2.37;;;;;;;8.00;59.75;97876.75;5052497;28;20244;-72
2023/01/14 01:37:16;;;;;;;7.23;2.47;;;;;;;8.07;59.49;97888.34;5050080;28;20430;-74
2023/01/14 01:39:42;;;;;;;4.30;2.00;;;;;;;8.10;59.40;97893.34;5052085;28;20253;-73
2023/01/14 01:42:18;;;;;;;7.63;2.33;;;;;;;8.17;60.03;97895.50;5054013;28;21147;-74
2023/01/14 01:44:43;;;;;;;7.33;2.30;;;;;;;8.18;60.17;97905.00;5046148;28;20206;-74
2023/01/14 01:47:09;;;;;;;4.30;1.60;;;;;;;8.19;60.83;97912.69;5050642;28;20519;-74
2023/01/14 01:49:36;;;;;;;9.80;2.50;;;;;;;8.29;60.11;97913.63;5051534;28;20234;-73
2023/01/14 01:52:06;;;;;;;7.73;2.20;;;;;;;8.39;60.29;97903.28;5051161;28;20651;-73
2023/01/14 01:54:38;;;;;;;8.67;1.77;;;;;;;8.45;60.58;97910.63;5049637;28;20429;-72
2023/01/14 01:57:05;;;;;;;7.57;1.80;;;;;;;8.44;59.83;97906.34;5047376;28;20426;-73
2023/01/14 01:59:33;;;;;;;8.67;2.00;;;;;;;8.49;59.98;97913.03;5033409;28;20841;-73
2023/01/14 02:01:59;;;;;;;6.37;1.97;;;;;;;8.53;59.59;97909.22;5049843;28;21015;-73
2023/01/14 02:04:24;;;;;;;9.53;1.90;;;;;;;8.48;60.42;97911.38;5051894;28;20429;-73
2023/01/14 02:06:50;;;;;;;8.60;1.70;;;;;;;8.49;60.29;97913.88;5050795;28;20186;-72
2023/01/14 02:09:16;;;;;;;8.07;2.83;;;;;;;8.50;59.62;97909.47;5050661;28;20286;-75
2023/01/14 02:11:57;;;;;;;11.00;1.83;;;;;;;8.50;60.10;97909.47;5033836;28;20232;-73
2023/01/14 02:14:41;;;;;;;9.60;2.03;;;;;;;8.45;60.74;97907.19;5051852;28;20417;-71
2023/01/14 02:17:40;;;;;;;4.80;1.53;;;;;;;8.46;60.25;97904.44;5050232;28;20406;-73
2023/01/14 02:20:22;;;;;;;5.03;1.40;;;;;;;8.53;60.85;97904.00;5050884;28;20831;-73
2023/01/14 02:23:09;;;;;;;8.17;1.77;;;;;;;8.52;60.29;97903.16;5049757;28;20425;-73
2023/01/14 02:26:03;;;;;;;14.03;2.33;;;;;;;8.43;60.99;97903.88;5044907;28;20508;-73
2023/01/14 02:28:46;;;;;;;5.43;1.80;;;;;;;8.22;61.33;97902.00;5047858;28;20429;-73
2023/01/14 02:31:37;;;;;;;3.47;1.50;;;;;;;8.33;61.15;97901.16;5050428;28;20474;-74
2023/01/14 02:34:14;;;;;;;9.77;2.07;;;;;;;8.35;60.56;97896.63;5048308;28;20491;-71
2023/01/14 02:36:59;;;;;;;7.20;1.73;;;;;;;8.33;61.01;97892.50;5046485;28;20425;-71
2023/01/14 02:39:37;;;;;;;3.13;1.37;;;;;;;8.30;60.28;97883.13;5049327;28;20491;-72
2023/01/14 02:45:31;;;;;;;9.33;2.40;;;;;;;8.26;60.60;97876.47;5049855;28;20489;-72
2023/01/14 02:47:58;;;;;;;4.30;1.80;;;;;;;8.32;60.50;97883.81;5041918;28;20444;-72
2023/01/14 02:50:23;;;;;;;5.23;1.70;;;;;;;8.28;59.96;97880.63;5049403;28;20812;-72
2023/01/14 02:52:49;;;;;;;10.03;2.27;;;;;;;8.30;60.36;97883.94;5050576;28;20425;-72
2023/01/14 02:55:27;;;;;;;5.10;1.67;;;;;;;8.25;60.29;97885.25;5050497;28;20261;-72
2023/01/14 02:58:10;;;;;;;5.97;2.00;;;;;;;8.26;60.25;97889.53;5049626;28;20265;-73
2023/01/14 03:01:23;;;;;;;5.73;2.07;;;;;;;8.15;59.79;97890.38;5049343;28;20487;-72
2023/01/14 03:04:07;;;;;;;4.00;1.80;;;;;;;8.15;60.33;97891.22;5030979;28;20426;-74
2023/01/14 03:06:56;;;;;;;4.10;1.63;;;;;;;8.11;60.59;97899.41;5031851;28;20467;-73
2023/01/14 03:09:40;;;;;;;5.13;1.50;;;;;;;8.06;60.38;97899.78;5042984;28;20467;-74
2023/01/14 03:12:40;;;;;;;4.83;1.60;;;;;;;8.00;60.40;97889.78;5049105;28;20429;-74
2023/01/14 03:15:12;;;;;;;7.40;1.73;;;;;;;8.11;60.01;97888.97;5047543;28;20847;-71
2023/01/14 03:17:52;;;;;;;8.97;2.17;;;;;;;8.07;60.07;97872.69;5048662;28;20481;-72
2023/01/14 03:20:23;;;;;;;4.40;1.73;;;;;;;8.06;60.64;97865.84;5050065;28;20461;-74
2023/01/14 03:22:51;;;;;;;4.53;1.40;;;;;;;8.08;59.95;97857.88;5050198;28;20483;-74
2023/01/14 03:25:17;;;;;;;5.00;1.70;;;;;;;8.12;60.42;97861.91;5050382;28;20418;-73
2023/01/14 03:27:45;;;;;;;5.70;1.73;;;;;;;8.02;60.03;97860.94;5048476;28;20440;-72
2023/01/14 03:30:14;;;;;;;5.50;1.97;;;;;;;7.69;60.58;97858.22;5047150;28;20211;-72
2023/01/14 03:33:03;;;;;;;8.93;1.93;;;;;;;7.92;60.86;97860.84;5048798;28;20449;-72
2023/01/14 03:35:33;;;;;;;4.93;1.57;;;;;;;8.02;60.18;97853.97;5051359;28;20503;-73
2023/01/14 03:38:29;;;;;;;4.43;1.30;;;;;;;8.02;59.88;97850.50;5046369;28;20427;-72
2023/01/14 03:40:56;;;;;;;9.50;1.50;;;;;;;8.02;60.34;97856.56;5046726;28;20577;-72
2023/01/14 03:43:32;;;;;;;6.77;1.97;;;;;;;8.02;60.51;97848.75;5050130;28;20445;-72
2023/01/14 03:45:57;;;;;;;5.13;1.47;;;;;;;7.99;60.73;97848.97;5050211;28;20416;-71
2023/01/14 03:48:23;;;;;;;5.43;1.37;;;;;;;7.86;60.48;97853.47;5047996;28;20765;-72
2023/01/14 03:50:52;;;;;;;7.90;1.43;;;;;;;7.86;60.77;97850.88;5036803;28;20203;-73
2023/01/14 03:53:22;;;;;;;5.27;1.50;;;;;;;7.92;60.86;97859.06;5042438;28;20948;-72
2023/01/14 03:56:14;;;;;;;9.27;1.50;;;;;;;7.94;61.04;97851.94;5043397;28;20428;-73
2023/01/14 03:58:48;;;;;;;7.80;1.47;;;;;;;7.96;60.73;97843.97;5039963;28;20990;-72
2023/01/14 04:01:18;;;;;;;4.00;1.40;;;;;;;7.91;60.81;97836.50;5052101;28;20461;-72
2023/01/14 04:03:43;;;;;;;6.80;1.80;;;;;;;7.97;60.90;97830.84;5053517;28;20417;-74
2023/01/14 04:06:11;;;;;;;2.70;1.10;;;;;;;7.98;60.45;97822.06;5052099;28;20792;-73
2023/01/14 04:08:36;;;;;;;7.63;1.30;;;;;;;7.95;60.81;97821.44;5053354;28;20424;-74
2023/01/14 04:11:02;;;;;;;5.27;1.40;;;;;;;7.97;60.69;97816.94;5053819;28;20909;-73
2023/01/14 04:16:11;;;;;;;8.43;2.23;;;;;;;8.04;60.55;97818.13;5052994;28;20187;-75
2023/01/14 04:18:36;;;;;;;3.57;1.50;;;;;;;8.04;60.11;97814.66;5053042;28;20476;-74
2023/01/14 04:21:02;;;;;;;2.90;1.20;;;;;;;8.06;60.49;97807.56;5048744;28;20215;-73
2023/01/14 04:23:27;;;;;;;6.03;1.40;;;;;;;8.09;60.07;97802.91;5063421;28;20183;-75
2023/01/14 04:25:57;;;;;;;6.50;1.37;;;;;;;8.11;60.28;97798.41;5051903;28;20182;-74
2023/01/14 04:28:23;;;;;;;4.50;1.53;;;;;;;8.09;59.85;97799.47;5053638;28;20183;-72
2023/01/14 04:30:49;;;;;;;4.57;1.63;;;;;;;8.07;59.75;97796.97;5052584;28;20449;-73
2023/01/14 04:33:14;;;;;;;4.37;1.30;;;;;;;8.09;60.62;97792.47;5051264;28;20247;-73
2023/01/14 04:35:39;;;;;;;4.03;1.60;;;;;;;8.07;60.59;97789.16;5050338;28;20460;-73
2023/01/14 04:38:05;;;;;;;8.67;1.83;;;;;;;8.07;60.08;97781.31;5052697;28;20551;-72
2023/01/14 04:40:30;;;;;;;8.20;1.70;;;;;;;8.06;60.28;97782.28;5034626;28;20211;-73
2023/01/14 04:42:56;;;;;;;4.80;1.60;;;;;;;8.10;60.90;97793.31;5057863;28;20187;-71
2023/01/14 04:45:21;;;;;;;2.53;1.43;;;;;;;8.09;60.23;97787.25;5038820;28;20240;-71
2023/01/14 04:47:50;;;;;;;5.30;1.70;;;;;;;8.07;60.06;97794.38;5047487;28;20179;-72
2023/01/14 04:50:31;;;;;;;4.33;1.43;;;;;;;8.08;59.78;97795.22;5072149;28;20575;-72
2023/01/14 04:53:04;;;;;;;7.60;1.87;;;;;;;8.10;59.87;97799.34;5062672;28;20679;-72
2023/01/14 04:55:30;;;;;;;3.57;1.27;;;;;;;8.07;60.56;97794.38;5038900;28;20867;-70
2023/01/14 04:57:55;;;;;;;5.67;1.40;;;;;;;8.03;60.21;97800.81;5044881;28;20484;-73
2023/01/14 05:00:20;;;;;;;5.00;1.20;;;;;;;8.06;60.32;97799.72;5037419;28;20576;-72
2023/01/14 05:02:46;;;;;;;4.30;1.20;;;;;;;7.96;60.36;97797.84;5022678;28;20187;-71
2023/01/14 05:05:11;;;;;;;6.07;1.10;;;;;;;7.94;60.60;97793.72;5022474;28;20191;-74
2023/01/14 05:07:37;;;;;;;2.07;1.27;;;;;;;7.99;60.54;97794.16;5050519;28;20269;-74
2023/01/14 05:10:03;;;;;;;5.90;1.40;;;;;;;7.98;60.36;97780.28;5052190;28;20345;-74
2023/01/14 05:12:28;;;;;;;4.80;1.60;;;;;;;8.02;60.07;97780.03;5050759;28;20183;-73
2023/01/14 05:14:53;;;;;;;7.80;1.60;;;;;;;7.99;60.13;97778.50;5051657;28;20183;-73
2023/01/14 05:17:19;;;;;;;9.93;1.30;;;;;;;7.98;59.73;97780.28;5051227;28;20745;-72
2023/01/14 05:19:44;;;;;;;8.83;1.47;;;;;;;7.98;60.17;97784.66;5051772;28;20279;-73
2023/01/14 05:22:10;;;;;;;4.83;1.33;;;;;;;7.97;59.73;97789.06;5051132;28;20195;-72
2023/01/14 05:24:35;;;;;;;5.30;1.20;;;;;;;8.03;59.95;97786.91;5061022;28;20269;-71
2023/01/14 05:27:01;;;;;;;2.37;1.20;;;;;;;8.02;59.46;97780.03;5054981;28;20218;-72
2023/01/14 05:29:26;;;;;;;5.67;1.50;;;;;;;8.03;59.62;97768.63;5054728;28;20565;-72
2023/01/14 05:31:52;;;;;;;9.27;1.63;;;;;;;8.07;59.95;97765.66;5057429;28;20201;-72
2023/01/14 05:34:18;;;;;;;7.17;1.77;;;;;;;8.08;59.85;97774.31;5037626;28;20194;-71
2023/01/14 05:36:47;;;;;;;4.40;1.23;;;;;;;8.09;59.07;97776.81;5054051;28;20183;-74
2023/01/14 05:39:13;;;;;;;4.17;1.87;;;;;;;8.12;59.31;97770.53;5054133;28;20450;-71
2023/01/14 05:45:37;;;;;;;10.37;2.60;;;;;;;8.11;59.29;97769.69;5036796;28;20495;-71
2023/01/14 05:47:08;;;;;;;4.27;2.23;;;;;;;8.02;59.11;97746.94;5053539;28;20465;-73
2023/01/14 05:49:33;;;;;;;3.20;1.37;;;;;;;8.05;59.01;97746.69;5049818;28;20476;-73
2023/01/14 05:51:59;;;;;;;5.43;1.37;;;;;;;8.00;59.58;97746.22;5050910;28;20199;-73
2023/01/14 05:54:24;;;;;;;3.43;1.37;;;;;;;7.99;58.91;97745.41;5053538;28;20637;-73
2023/01/14 05:56:49;;;;;;;6.50;1.50;;;;;;;8.03;59.46;97743.38;5045773;28;20665;-73
2023/01/14 05:59:15;;;;;;;5.30;1.57;;;;;;;8.04;59.07;97746.78;5044668;28;20825;-73
2023/01/14 06:07:08;;;;;;;3.53;1.60;;;;;;;7.97;59.61;97734.25;5049891;28;21263;-71
2023/01/14 06:09:33;;;;;;;7.80;1.73;;;;;;;7.86;60.22;97723.00;5049624;28;20491;-73
2023/01/14 06:12:02;;;;;;;5.50;1.20;;;;;;;7.81;60.57;97725.97;5050970;28;20261;-74
2023/01/14 06:14:34;;;;;;;3.37;1.27;;;;;;;7.84;60.46;97726.56;5047513;28;20187;-76
2023/01/14 06:17:02;;;;;;;3.73;1.40;;;;;;;7.82;60.49;97730.25;5042162;28;20887;-74
2023/01/14 06:19:27;;;;;;;8.23;1.73;;;;;;;7.88;60.53;97732.34;5049299;28;20457;-73
2023/01/14 06:21:53;;;;;;;8.97;1.80;;;;;;;7.81;60.43;97737.22;5012659;28;20430;-72
2023/01/14 06:24:19;;;;;;;3.50;1.40;;;;;;;7.75;59.68;97734.31;5032444;28;20299;-73
2023/01/14 06:26:44;;;;;;;4.50;1.53;;;;;;;7.74;60.08;97728.25;5040976;28;20654;-73
2023/01/14 06:29:11;;;;;;;9.20;1.47;;;;;;;7.77;59.63;97729.75;5047431;28;20264;-73
2023/01/14 06:31:38;;;;;;;7.03;1.30;;;;;;;7.73;59.83;97723.97;5050359;28;20202;-74
2023/01/14 06:34:03;;;;;;;6.27;1.73;;;;;;;7.67;59.96;97727.09;5050936;28;20425;-75
2023/01/14 06:36:30;;;;;;;4.40;1.80;;;;;;;7.65;60.45;97726.38;5049195;28;20425;-75
2023/01/14 06:38:56;;;;;;;4.50;1.50;;;;;;;7.53;59.88;97723.78;5048876;28;20207;-74
2023/01/14 06:41:21;;;;;;;2.80;1.37;;;;;;;7.67;59.97;97729.69;5051323;28;20925;-73
2023/01/14 06:43:47;;;;;;;6.20;2.30;;;;;;;7.76;59.99;97728.94;5050558;28;20179;-73
2023/01/14 06:46:14;;;;;;;9.87;1.90;;;;;;;7.75;59.29;97722.06;5055756;28;20232;-73
2023/01/14 06:48:40;;;;;;;4.83;1.57;;;;;;;7.73;59.69;97718.75;5049156;28;20562;-73
2023/01/14 06:51:08;;;;;;;7.87;2.00;;;;;;;7.76;59.43;97708.06;5049948;28;20422;-71
2023/01/14 06:53:33;;;;;;;6.83;1.70;;;;;;;7.78;59.60;97707.94;5035185;28;20226;-72
2023/01/14 06:56:03;;;;;;;4.27;1.70;;;;;;;7.82;60.23;97710.19;5046915;28;20804;-73
2023/01/14 06:58:28;;;;;;;6.00;1.60;;;;;;;7.79;59.85;97699.16;5044901;28;20680;-73
2023/01/14 07:00:55;;;;;;;2.47;1.60;;;;;;;7.79;59.70;97694.78;5049721;28;20465;-73
2023/01/14 07:03:21;;;;;;;8.30;1.97;;;;;;;7.78;59.83;97695.75;5046644;28;20191;-74
2023/01/14 07:05:46;;;;;;;7.00;2.03;;;;;;;7.79;60.07;97692.19;5045154;28;20422;-74
2023/01/14 07:08:12;;;;;;;3.10;1.70;;;;;;;7.75;59.79;97693.38;5049717;28;20183;-72
2023/01/14 07:10:37;;;;;;;4.73;1.97;;;;;;;7.69;59.85;97686.88;5051145;28;20733;-73
2023/01/14 07:13:03;;;;;;;4.40;1.70;;;;;;;7.69;60.41;97692.06;5049400;28;20598;-72
2023/01/14 07:15:28;;;;;;;9.63;2.20;;;;;;;7.68;60.46;97693.03;5048968;28;20222;-74
2023/01/14 07:17:53;;;;;;;5.33;1.97;;;;;;;7.61;59.94;97677.97;5049680;28;20261;-71
2023/01/14 07:20:19;;;;;;;6.13;1.70;;;;;;;7.67;59.86;97677.50;5050098;28;20210;-72
2023/01/14 07:22:44;;;;;;;10.73;2.30;;;;;;;7.48;60.67;97673.72;5055566;28;20185;-72
2023/01/14 07:25:10;;;;;;;6.70;1.83;;;;;;;7.44;60.41;97669.69;5051090;28;20190;-71
2023/01/14 07:27:35;;;;;;;6.30;1.63;;;;;;;7.58;60.89;97670.38;5032567;28;20195;-74
2023/01/14 07:30:01;;;;;;;5.17;1.67;;;;;;;7.50;60.17;97660.56;5050452;28;20199;-73
2023/01/14 07:32:27;;;;;;;3.13;1.50;;;;;;;7.51;60.39;97662.22;5047994;28;20202;-73
2023/01/14 07:34:52;;;;;;;7.23;1.50;;;;;;;7.53;60.91;97661.16;5045073;28;20176;-73
2023/01/14 07:37:18;;;;;;;4.17;1.63;;;;;;;7.54;60.45;97656.78;5049305;28;20554;-72
2023/01/14 07:39:43;;;;;;;6.03;1.67;;;;;;;7.58;60.95;97649.53;5054718;28;20259;-74
2023/01/14 07:42:09;;;;;;;4.80;1.73;;;;;;;7.50;60.78;97637.09;5050261;28;20266;-75
2023/01/14 07:44:35;;;;;;;5.30;1.53;;;;;;;7.43;61.01;97634.16;5053084;28;20760;-75
2023/01/14 07:47:00;;;;;;;4.93;1.80;;;;;;;7.47;60.75;97632.94;5054237;28;20269;-75
2023/01/14 07:49:26;;;;;;;9.23;2.00;;;;;;;7.56;61.48;97630.59;5053243;28;20298;-75
2023/01/14 07:51:51;;;;;;;4.53;1.67;;;;;;;7.64;60.93;97613.34;5054071;28;20183;-75
2023/01/14 07:54:17;;;;;;;10.37;2.37;;;;;;;7.68;61.00;97614.75;5054712;28;20193;-74
2023/01/14 07:56:43;;;;;;;8.00;1.80;;;;;;;7.63;61.16;97616.09;5041218;28;20681;-75
2023/01/14 07:59:09;;;;;;;10.67;1.80;;;;;;;7.65;60.94;97614.19;5044313;28;20478;-73
2023/01/14 08:01:35;;;;;;;11.23;2.10;;;;;;;7.59;61.67;97622.50;5023601;28;20628;-74
2023/01/14 08:04:00;;;;;;;7.50;2.40;;;;;;;7.79;61.21;97605.22;5039655;28;20501;-75
2023/01/14 08:06:27;;;;;;;9.23;2.70;;;;;;;7.80;61.22;97609.50;5041764;28;20237;-74
2023/01/14 08:08:52;;;;;;;12.20;2.37;;;;;;;7.71;61.52;97590.19;5049100;28;20187;-75
2023/01/14 08:11:18;;;;;;;7.47;2.00;;;;;;;7.84;61.52;97598.69;5042420;28;20449;-75
2023/01/14 08:13:44;;;;;;;13.27;2.30;;;;;;;7.89;61.63;97606.13;5039852;28;20187;-74
2023/01/14 08:16:10;;;;;;;10.80;2.43;;;;;;;7.99;61.81;97604.44;5045331;28;21019;-75
2023/01/14 08:18:36;;;;;;;10.70;2.20;;;;;;;8.01;61.42;97601.69;5042021;28;20617;-73
2023/01/14 08:21:06;;;;;;;12.00;2.33;;;;;;;8.21;60.75;97596.59;5046696;28;20233;-73
2023/01/14 08:23:32;;;;;;;4.67;1.90;;;;;;;8.28;60.77;97592.53;5051169;28;20437;-74
2023/01/14 08:26:03;;;;;;;8.17;2.37;;;;;;;8.35;61.09;97598.88;5044560;28;20528;-72
2023/01/14 08:28:29;;;;;;;5.23;1.80;;;;;;;8.43;61.26;97601.69;5041745;28;20819;-76
2023/01/14 08:31:15;;;;;;;10.07;2.77;;;;;;;8.52;61.09;97601.91;5042677;28;20448;-75
2023/01/14 08:33:42;;;;;;;10.37;2.80;;;;;;;8.67;61.32;97600.59;5044307;28;20187;-75
2023/01/14 08:36:11;;;;;;;10.10;2.27;;;;;;;8.81;60.86;97603.84;5047613;28;20421;-73
2023/01/14 08:38:38;;;;;;;12.63;2.57;;;;;;;8.94;60.16;97600.97;5041540;28;20441;-74
2023/01/14 08:41:09;;;;;;;7.90;2.30;;;;;;;8.98;60.17;97590.13;5047132;28;20523;-74
2023/01/14 08:43:35;;;;;;;8.23;1.97;;;;;;;9.01;59.92;97595.09;5044031;28;20423;-75
2023/01/14 08:46:02;;;;;;;5.73;1.70;;;;;;;9.07;60.39;97578.84;5049260;28;20433;-74
2023/01/14 08:48:28;;;;;;;8.80;2.27;;;;;;;9.24;59.81;97584.41;5046456;28;20433;-73
2023/01/14 08:50:53;;;;;;;5.50;1.60;;;;;;;9.13;59.66;97577.53;5038217;28;20512;-73
2023/01/14 08:53:19;;;;;;;10.83;2.10;;;;;;;9.12;59.77;97575.03;5044948;28;20422;-74
2023/01/14 08:55:45;;;;;;;6.73;1.87;;;;;;;9.21;59.49;97567.22;5040111;28;20222;-73
2023/01/14 08:58:10;;;;;;;4.80;1.87;;;;;;;9.22;60.16;97573.25;5038271;28;21023;-73
2023/01/14 09:00:36;;;;;;;11.33;2.73;;;;;;;9.24;60.08;97567.91;5049407;28;20245;-74
2023/01/14 09:03:01;;;;;;;15.50;5.77;;;;;;;9.21;59.89;97564.59;5051132;28;20194;-74
2023/01/14 09:05:27;;;;;;;8.13;3.90;;;;;;;9.29;59.88;97563.91;5046993;28;20670;-73
2023/01/14 09:18:54;;;;;;;6.50;1.40;;;;;;;9.41;60.51;97548.91;5040676;28;20426;-74
2023/01/14 09:21:19;;;;;;;9.13;2.43;;;;;;;9.37;60.82;97537.91;5045828;28;20466;-75
2023/01/14 09:23:45;;;;;;;15.10;1.93;;;;;;;9.40;60.58;97534.16;5052655;28;20531;-73
2023/01/14 09:26:10;;;;;;;7.70;1.87;;;;;;;9.43;60.39;97525.25;5052266;28;20270;-75
2023/01/14 09:28:35;;;;;;;7.97;1.90;;;;;;;9.51;60.19;97535.84;5034281;28;20207;-76
2023/01/14 09:31:01;;;;;;;5.57;1.73;;;;;;;9.53;60.57;97526.06;5053821;28;20260;-74
2023/01/14 09:33:26;;;;;;;14.43;2.10;;;;;;;9.56;60.56;97528.41;5053422;28;20285;-74
2023/01/14 09:35:52;;;;;;;7.80;1.87;;;;;;;9.54;60.65;97527.72;5049842;28;20214;-75
2023/01/14 09:38:17;;;;;;;4.90;1.57;;;;;;;9.60;60.72;97527.16;5053103;28;20229;-74
2023/01/14 09:40:43;;;;;;;5.43;3.93;;;;;;;9.64;61.03;97525.94;5054043;28;20211;-74
2023/01/14 09:43:19;;;;;;;5.10;1.50;;;;;;;9.66;60.91;97517.94;5055013;28;20217;-75
2023/01/14 09:45:47;;;;;;;5.17;1.70;;;;;;;9.70;61.33;97516.69;5029877;28;20176;-74
2023/01/14 09:48:15;;;;;;;6.73;1.80;;;;;;;9.76;61.11;97526.63;5035225;28;20429;-73
2023/01/14 09:50:56;;;;;;;8.80;1.77;;;;;;;9.72;61.43;97514.78;5037493;28;20444;-73
2023/01/14 09:53:22;;;;;;;6.17;1.27;;;;;;;9.72;61.57;97520.00;5037528;28;20422;-73
2023/01/14 09:55:56;;;;;;;3.53;1.37;;;;;;;9.87;61.69;97509.91;5046113;28;20562;-74
2023/01/14 09:58:37;;;;;;;5.10;1.30;;;;;;;9.98;61.39;97499.28;5040867;28;20668;-73
2023/01/14 10:01:17;;;;;;;2.30;1.23;;;;;;;10.11;61.31;97506.00;5060216;28;20523;-73
2023/01/14 10:03:42;;;;;;;6.00;1.73;;;;;;;10.12;61.42;97499.81;5035510;28;20442;-74
2023/01/14 10:06:13;;;;;;;5.13;1.50;;;;;;;10.11;61.32;97498.16;5060189;28;20505;-73
2023/01/14 10:09:05;;;;;;;6.63;1.40;;;;;;;10.19;61.17;97506.13;5059971;28;20261;-73
2023/01/14 10:11:36;;;;;;;5.57;1.40;;;;;;;10.26;60.60;97496.72;5056586;28;20422;-72
2023/01/14 10:14:11;;;;;;;4.40;1.30;;;;;;;10.34;60.43;97495.19;5058649;28;20529;-73
2023/01/14 10:16:42;;;;;;;5.23;1.30;;;;;;;10.35;60.15;97478.50;5053963;28;20489;-74
2023/01/14 10:19:20;;;;;;;3.43;1.17;;;;;;;10.37;59.88;97471.31;5054632;28;20437;-73
2023/01/14 10:21:48;;;;;;;9.93;2.10;;;;;;;10.28;59.69;97467.75;5055661;28;20414;-73
2023/01/14 10:24:15;;;;;;;4.63;1.30;;;;;;;10.36;59.67;97460.03;5062619;28;20839;-73
2023/01/14 10:26:46;;;;;;;8.90;1.73;;;;;;;10.38;59.49;97444.19;5054823;28;20456;-72
2023/01/14 10:29:21;;;;;;;7.70;1.73;;;;;;;10.30;59.34;97413.44;5050673;28;20441;-74
2023/01/14 10:31:54;;;;;;;3.20;1.90;;;;;;;10.39;59.10;97401.28;5057089;28;20425;-73
2023/01/14 10:34:30;;;;;;;8.40;1.83;;;;;;;10.41;59.25;97401.97;5055610;28;20438;-73
2023/01/14 10:36:55;;;;;;;8.00;1.20;;;;;;;10.45;59.06;97379.75;5057356;28;20475;-73
2023/01/14 10:39:20;;;;;;;2.10;1.57;;;;;;;10.39;58.90;97396.06;5039816;28;20976;-73
2023/01/14 10:41:50;;;;;;;8.03;1.20;;;;;;;10.43;58.99;97392.19;5057619;28;20578;-74
2023/01/14 10:44:24;;;;;;;4.70;1.40;;;;;;;10.38;59.18;97400.47;5054155;28;20203;-73
2023/01/14 10:46:52;;;;;;;6.50;2.00;;;;;;;10.51;58.89;97400.13;5054414;28;20436;-73
2023/01/14 10:49:20;;;;;;;8.10;1.37;;;;;;;10.65;58.78;97387.47;5051925;28;21159;-73
2023/01/14 10:51:52;;;;;;;3.73;1.53;;;;;;;10.67;58.60;97390.78;5035637;28;20429;-74
2023/01/14 10:54:19;;;;;;;3.03;1.40;;;;;;;10.74;58.54;97390.03;5053699;28;20422;-73
2023/01/14 10:56:52;;;;;;;7.47;1.50;;;;;;;10.72;58.43;97381.50;5054467;28;20425;-73
2023/01/14 10:59:28;;;;;;;2.97;1.30;;;;;;;10.64;58.39;97376.19;5047809;28;20453;-74
2023/01/14 11:01:54;;;;;;;5.60;1.57;;;;;;;10.75;58.52;97370.72;5049570;28;20429;-74
2023/01/14 11:04:27;;;;;;;5.40;1.13;;;;;;;10.70;58.63;97352.00;5053896;28;20433;-73
2023/01/14 11:06:53;;;;;;;3.33;1.97;;;;;;;10.70;58.60;97340.69;5038168;28;20191;-73
2023/01/14 11:09:23;;;;;;;4.47;1.93;;;;;;;10.79;58.24;97333.69;5039270;28;20493;-73
2023/01/14 11:11:49;;;;;;;2.80;1.53;;;;;;;10.86;58.18;97329.53;5042683;28;20422;-73
2023/01/14 11:14:24;;;;;;;1.80;1.57;;;;;;;10.79;58.18;97318.81;5058932;28;20491;-73
2023/01/14 11:16:50;;;;;;;3.43;1.60;;;;;;;10.72;58.45;97312.50;5060114;28;20446;-74
2023/01/14 11:19:15;;;;;;;4.73;1.43;;;;;;;10.81;58.19;97306.38;5058817;28;20536;-73
2023/01/14 11:21:46;;;;;;;3.03;1.47;;;;;;;10.85;58.37;97301.66;5059505;28;20187;-73
2023/01/14 11:24:35;;;;;;;3.43;1.20;;;;;;;10.95;58.01;97304.19;5042191;28;20190;-72
2023/01/14 11:27:03;;;;;;;2.30;1.33;;;;;;;10.85;58.15;97296.41;5059921;28;20501;-72
2023/01/14 11:29:30;;;;;;;5.50;1.70;;;;;;;10.90;57.95;97297.59;5042191;28;20533;-73
2023/01/14 11:32:03;;;;;;;2.40;1.43;;;;;;;10.90;57.86;97300.22;5058629;28;20448;-73
2023/01/14 11:34:36;;;;;;;2.50;1.70;;;;;;;10.93;57.97;97298.28;5052257;28;20441;-73
2023/01/14 11:37:09;;;;;;;1.93;1.17;;;;;;;11.02;57.66;97286.84;5056817;28;21040;-74
2023/01/14 11:39:35;;;;;;;2.90;1.33;;;;;;;11.04;57.75;97279.66;5051129;28;20970;-74
2023/01/14 11:42:03;;;;;;;1.90;0.90;;;;;;;11.01;57.40;97275.56;5061619;28;20426;-72
2023/01/14 11:44:29;;;;;;;3.37;1.50;;;;;;;11.01;57.63;97277.34;5059594;28;20421;-73
2023/01/14 11:47:15;;;;;;;4.37;1.43;;;;;;;11.06;57.51;97267.22;5041618;28;20429;-74
2023/01/14 11:49:40;;;;;;;3.07;1.40;;;;;;;11.16;57.21;97256.63;5058607;28;20265;-74
2023/01/14 11:52:17;;;;;;;2.33;1.20;;;;;;;11.14;57.37;97254.16;5058255;28;20441;-73
2023/01/14 11:54:47;;;;;;;2.97;1.50;;;;;;;11.22;57.25;97254.19;5025708;28;20179;-74
2023/01/14 11:57:17;;;;;;;3.13;1.47;;;;;;;11.19;57.48;97246.66;5057559;28;21093;-73
2023/01/14 11:59:44;;;;;;;1.87;1.27;;;;;;;11.20;56.90;97240.44;5025004;28;20988;-74
2023/01/14 12:02:15;;;;;;;2.73;1.20;;;;;;;11.21;56.79;97242.06;5058683;28;20429;-74
2023/01/14 12:04:46;;;;;;;2.60;1.50;;;;;;;11.14;57.25;97227.94;5036354;28;20519;-74
2023/01/14 12:07:34;;;;;;;2.90;1.20;;;;;;;11.25;56.99;97223.38;5043751;28;20440;-75
2023/01/14 12:10:16;;;;;;;2.87;1.60;;;;;;;11.21;56.98;97209.75;5059566;28;20437;-73
2023/01/14 12:18:43;;;;;;;5.87;1.10;;;;;;;11.20;56.53;97195.00;5051535;28;20424;-74
2023/01/14 12:21:09;;;;;;;3.90;0.90;;;;;;;11.05;56.65;97186.91;5056792;28;20534;-74